sensor_id;sensor_type;location;lat;lon;timestamp;P1;durP1;ratioP1;P2;durP2;ratioP2
21513;SDS011;10918;48.102;11.636;2023-05-14T00:01:43;12.05;;;10.40;;
21513;SDS011;10918;48.102;11.636;2023-05-14T00:04:10;14.95;;;11.90;;
21513;SDS011;10918;48.102;11.636;2023-05-14T00:06:36;15.18;;;11.23;;
21513;SDS011;10918;48.102;11.636;2023-05-14T00:09:02;12.32;;;10.93;;
21513;SDS011;10918;48.102;11.636;2023-05-14T00:11:28;12.95;;;10.63;;
21513;SDS011;10918;48.102;11.636;2023-05-14T00:13:54;13.98;;;10.93;;
21513;SDS011;10918;48.102;11.636;2023-05-14T00:16:20;13.07;;;10.32;;
21513;SDS011;10918;48.102;11.636;2023-05-14T00:18:46;13.63;;;10.55;;
21513;SDS011;10918;48.102;11.636;2023-05-14T00:21:12;13.32;;;10.52;;
21513;SDS011;10918;48.102;11.636;2023-05-14T00:23:38;13.15;;;10.45;;
21513;SDS011;10918;48.102;11.636;2023-05-14T00:26:04;13.18;;;11.75;;
21513;SDS011;10918;48.102;11.636;2023-05-14T00:28:30;12.13;;;10.85;;
21513;SDS011;10918;48.102;11.636;2023-05-14T00:30:56;12.18;;;10.63;;
21513;SDS011;10918;48.102;11.636;2023-05-14T00:33:22;12.43;;;11.07;;
21513;SDS011;10918;48.102;11.636;2023-05-14T00:35:48;13.43;;;11.63;;
21513;SDS011;10918;48.102;11.636;2023-05-14T00:38:15;12.23;;;10.93;;
21513;SDS011;10918;48.102;11.636;2023-05-14T00:40:43;14.18;;;12.15;;
21513;SDS011;10918;48.102;11.636;2023-05-14T00:43:13;13.65;;;11.70;;
21513;SDS011;10918;48.102;11.636;2023-05-14T00:45:40;16.58;;;12.35;;
21513;SDS011;10918;48.102;11.636;2023-05-14T00:48:06;12.88;;;11.52;;
21513;SDS011;10918;48.102;11.636;2023-05-14T00:50:32;11.73;;;10.52;;
21513;SDS011;10918;48.102;11.636;2023-05-14T00:52:58;14.23;;;11.52;;
21513;SDS011;10918;48.102;11.636;2023-05-14T00:55:24;12.60;;;10.52;;
21513;SDS011;10918;48.102;11.636;2023-05-14T00:57:51;11.63;;;9.82;;
21513;SDS011;10918;48.102;11.636;2023-05-14T01:00:18;11.63;;;10.43;;
21513;SDS011;10918;48.102;11.636;2023-05-14T01:02:44;12.93;;;11.23;;
21513;SDS011;10918;48.102;11.636;2023-05-14T01:05:10;13.60;;;10.82;;
21513;SDS011;10918;48.102;11.636;2023-05-14T01:07:52;12.43;;;10.15;;
21513;SDS011;10918;48.102;11.636;2023-05-14T01:10:21;12.57;;;10.57;;
21513;SDS011;10918;48.102;11.636;2023-05-14T01:12:53;12.40;;;10.30;;
21513;SDS011;10918;48.102;11.636;2023-05-14T01:15:29;12.88;;;10.40;;
21513;SDS011;10918;48.102;11.636;2023-05-14T01:18:00;12.63;;;10.43;;
21513;SDS011;10918;48.102;11.636;2023-05-14T01:20:28;12.35;;;10.35;;
21513;SDS011;10918;48.102;11.636;2023-05-14T01:22:54;15.50;;;10.80;;
21513;SDS011;10918;48.102;11.636;2023-05-14T01:25:20;13.55;;;11.02;;
21513;SDS011;10918;48.102;11.636;2023-05-14T01:27:59;12.32;;;10.30;;
21513;SDS011;10918;48.102;11.636;2023-05-14T01:30:28;12.65;;;10.40;;
21513;SDS011;10918;48.102;11.636;2023-05-14T01:32:56;15.23;;;11.00;;
21513;SDS011;10918;48.102;11.636;2023-05-14T01:35:24;14.63;;;11.55;;
21513;SDS011;10918;48.102;11.636;2023-05-14T01:37:52;15.10;;;12.40;;
21513;SDS011;10918;48.102;11.636;2023-05-14T01:40:19;15.18;;;12.23;;
21513;SDS011;10918;48.102;11.636;2023-05-14T01:42:46;15.25;;;11.98;;
21513;SDS011;10918;48.102;11.636;2023-05-14T01:45:12;16.48;;;11.63;;
21513;SDS011;10918;48.102;11.636;2023-05-14T01:47:38;15.23;;;11.95;;
21513;SDS011;10918;48.102;11.636;2023-05-14T01:50:04;15.10;;;12.02;;
21513;SDS011;10918;48.102;11.636;2023-05-14T01:52:31;16.02;;;12.30;;
21513;SDS011;10918;48.102;11.636;2023-05-14T01:54:56;13.90;;;12.30;;
21513;SDS011;10918;48.102;11.636;2023-05-14T01:57:23;15.05;;;12.10;;
21513;SDS011;10918;48.102;11.636;2023-05-14T01:59:49;17.30;;;12.50;;
21513;SDS011;10918;48.102;11.636;2023-05-14T02:02:15;13.70;;;11.07;;
21513;SDS011;10918;48.102;11.636;2023-05-14T02:04:41;17.25;;;12.70;;
21513;SDS011;10918;48.102;11.636;2023-05-14T02:07:07;14.80;;;11.40;;
21513;SDS011;10918;48.102;11.636;2023-05-14T02:09:33;14.23;;;11.10;;
21513;SDS011;10918;48.102;11.636;2023-05-14T02:12:00;15.50;;;11.88;;
21513;SDS011;10918;48.102;11.636;2023-05-14T02:14:26;14.93;;;11.77;;
21513;SDS011;10918;48.102;11.636;2023-05-14T02:16:52;14.13;;;11.57;;
21513;SDS011;10918;48.102;11.636;2023-05-14T02:19:18;15.60;;;11.80;;
21513;SDS011;10918;48.102;11.636;2023-05-14T02:21:44;15.55;;;10.98;;
21513;SDS011;10918;48.102;11.636;2023-05-14T02:24:10;12.57;;;10.63;;
21513;SDS011;10918;48.102;11.636;2023-05-14T02:26:36;16.25;;;11.18;;
21513;SDS011;10918;48.102;11.636;2023-05-14T02:29:01;16.30;;;12.13;;
21513;SDS011;10918;48.102;11.636;2023-05-14T02:31:28;16.15;;;13.13;;
21513;SDS011;10918;48.102;11.636;2023-05-14T02:33:54;17.17;;;12.90;;
21513;SDS011;10918;48.102;11.636;2023-05-14T02:36:20;15.20;;;11.57;;
21513;SDS011;10918;48.102;11.636;2023-05-14T02:38:46;17.52;;;12.63;;
21513;SDS011;10918;48.102;11.636;2023-05-14T02:41:12;15.70;;;12.73;;
21513;SDS011;10918;48.102;11.636;2023-05-14T02:43:38;18.15;;;12.98;;
21513;SDS011;10918;48.102;11.636;2023-05-14T02:46:04;17.80;;;13.20;;
21513;SDS011;10918;48.102;11.636;2023-05-14T02:48:29;17.42;;;13.65;;
21513;SDS011;10918;48.102;11.636;2023-05-14T02:50:55;17.17;;;13.05;;
21513;SDS011;10918;48.102;11.636;2023-05-14T02:53:21;20.83;;;15.52;;
21513;SDS011;10918;48.102;11.636;2023-05-14T02:55:47;17.85;;;14.65;;
21513;SDS011;10918;48.102;11.636;2023-05-14T02:58:13;18.98;;;14.32;;
21513;SDS011;10918;48.102;11.636;2023-05-14T03:00:39;20.58;;;15.18;;
21513;SDS011;10918;48.102;11.636;2023-05-14T03:03:05;18.83;;;14.45;;
21513;SDS011;10918;48.102;11.636;2023-05-14T03:05:31;17.88;;;13.52;;
21513;SDS011;10918;48.102;11.636;2023-05-14T03:07:57;19.92;;;14.23;;
21513;SDS011;10918;48.102;11.636;2023-05-14T03:10:23;20.08;;;14.73;;
21513;SDS011;10918;48.102;11.636;2023-05-14T03:12:49;20.25;;;13.98;;
21513;SDS011;10918;48.102;11.636;2023-05-14T03:15:16;18.85;;;13.93;;
21513;SDS011;10918;48.102;11.636;2023-05-14T03:17:42;18.20;;;14.13;;
21513;SDS011;10918;48.102;11.636;2023-05-14T03:20:08;18.00;;;14.25;;
21513;SDS011;10918;48.102;11.636;2023-05-14T03:22:34;20.08;;;14.13;;
21513;SDS011;10918;48.102;11.636;2023-05-14T03:25:00;18.38;;;14.57;;
21513;SDS011;10918;48.102;11.636;2023-05-14T03:27:26;21.38;;;15.20;;
21513;SDS011;10918;48.102;11.636;2023-05-14T03:29:53;18.58;;;14.45;;
21513;SDS011;10918;48.102;11.636;2023-05-14T03:32:19;22.63;;;14.85;;
21513;SDS011;10918;48.102;11.636;2023-05-14T03:34:45;18.92;;;14.20;;
21513;SDS011;10918;48.102;11.636;2023-05-14T03:37:11;21.42;;;14.95;;
21513;SDS011;10918;48.102;11.636;2023-05-14T03:39:37;20.30;;;15.30;;
21513;SDS011;10918;48.102;11.636;2023-05-14T03:42:03;20.40;;;15.27;;
21513;SDS011;10918;48.102;11.636;2023-05-14T03:44:29;23.08;;;15.80;;
21513;SDS011;10918;48.102;11.636;2023-05-14T03:46:55;20.98;;;15.45;;
21513;SDS011;10918;48.102;11.636;2023-05-14T03:49:21;20.30;;;15.57;;
21513;SDS011;10918;48.102;11.636;2023-05-14T03:51:47;22.48;;;15.82;;
21513;SDS011;10918;48.102;11.636;2023-05-14T03:54:19;22.02;;;15.95;;
21513;SDS011;10918;48.102;11.636;2023-05-14T03:56:45;20.75;;;15.80;;
21513;SDS011;10918;48.102;11.636;2023-05-14T03:59:11;21.98;;;15.93;;
21513;SDS011;10918;48.102;11.636;2023-05-14T04:01:37;21.92;;;15.57;;
21513;SDS011;10918;48.102;11.636;2023-05-14T04:04:03;20.85;;;15.95;;
21513;SDS011;10918;48.102;11.636;2023-05-14T04:06:29;20.55;;;15.55;;
21513;SDS011;10918;48.102;11.636;2023-05-14T04:08:55;20.58;;;15.38;;
21513;SDS011;10918;48.102;11.636;2023-05-14T04:11:21;18.92;;;14.90;;
21513;SDS011;10918;48.102;11.636;2023-05-14T04:13:47;19.23;;;14.63;;
21513;SDS011;10918;48.102;11.636;2023-05-14T04:16:13;23.02;;;15.60;;
21513;SDS011;10918;48.102;11.636;2023-05-14T04:18:39;23.05;;;16.15;;
21513;SDS011;10918;48.102;11.636;2023-05-14T04:21:05;21.17;;;15.88;;
21513;SDS011;10918;48.102;11.636;2023-05-14T04:23:31;23.42;;;16.08;;
21513;SDS011;10918;48.102;11.636;2023-05-14T04:25:57;23.38;;;16.42;;
21513;SDS011;10918;48.102;11.636;2023-05-14T04:28:23;21.48;;;14.90;;
21513;SDS011;10918;48.102;11.636;2023-05-14T04:30:49;18.75;;;15.00;;
21513;SDS011;10918;48.102;11.636;2023-05-14T04:33:16;22.60;;;15.57;;
21513;SDS011;10918;48.102;11.636;2023-05-14T04:35:43;22.33;;;15.73;;
21513;SDS011;10918;48.102;11.636;2023-05-14T04:38:09;23.65;;;16.83;;
21513;SDS011;10918;48.102;11.636;2023-05-14T04:40:38;25.45;;;16.95;;
21513;SDS011;10918;48.102;11.636;2023-05-14T04:43:03;24.23;;;16.45;;
21513;SDS011;10918;48.102;11.636;2023-05-14T04:45:30;24.02;;;16.92;;
21513;SDS011;10918;48.102;11.636;2023-05-14T04:47:56;24.25;;;16.73;;
21513;SDS011;10918;48.102;11.636;2023-05-14T04:50:22;23.88;;;16.67;;
21513;SDS011;10918;48.102;11.636;2023-05-14T04:52:49;21.80;;;15.93;;
21513;SDS011;10918;48.102;11.636;2023-05-14T04:55:15;23.92;;;16.80;;
21513;SDS011;10918;48.102;11.636;2023-05-14T04:57:41;26.17;;;17.08;;
21513;SDS011;10918;48.102;11.636;2023-05-14T05:00:07;22.77;;;16.45;;
21513;SDS011;10918;48.102;11.636;2023-05-14T05:02:34;23.20;;;16.42;;
21513;SDS011;10918;48.102;11.636;2023-05-14T05:05:00;20.88;;;16.60;;
21513;SDS011;10918;48.102;11.636;2023-05-14T05:07:26;20.88;;;15.82;;
21513;SDS011;10918;48.102;11.636;2023-05-14T05:09:52;23.00;;;15.75;;
21513;SDS011;10918;48.102;11.636;2023-05-14T05:12:17;25.42;;;17.98;;
21513;SDS011;10918;48.102;11.636;2023-05-14T05:14:43;24.38;;;16.77;;
21513;SDS011;10918;48.102;11.636;2023-05-14T05:17:09;23.70;;;17.23;;
21513;SDS011;10918;48.102;11.636;2023-05-14T05:19:35;20.63;;;15.85;;
21513;SDS011;10918;48.102;11.636;2023-05-14T05:22:01;22.58;;;16.15;;
21513;SDS011;10918;48.102;11.636;2023-05-14T05:24:27;21.02;;;16.15;;
21513;SDS011;10918;48.102;11.636;2023-05-14T05:26:53;23.80;;;16.95;;
21513;SDS011;10918;48.102;11.636;2023-05-14T05:29:20;24.50;;;17.77;;
21513;SDS011;10918;48.102;11.636;2023-05-14T05:31:46;24.92;;;17.23;;
21513;SDS011;10918;48.102;11.636;2023-05-14T05:34:12;24.52;;;16.27;;
21513;SDS011;10918;48.102;11.636;2023-05-14T05:36:38;24.20;;;17.17;;
21513;SDS011;10918;48.102;11.636;2023-05-14T05:39:04;25.52;;;16.90;;
21513;SDS011;10918;48.102;11.636;2023-05-14T05:41:30;24.48;;;17.27;;
21513;SDS011;10918;48.102;11.636;2023-05-14T05:43:56;20.52;;;15.93;;
21513;SDS011;10918;48.102;11.636;2023-05-14T05:46:22;23.42;;;16.85;;
21513;SDS011;10918;48.102;11.636;2023-05-14T05:48:48;26.25;;;16.95;;
21513;SDS011;10918;48.102;11.636;2023-05-14T05:51:14;22.65;;;16.70;;
21513;SDS011;10918;48.102;11.636;2023-05-14T05:53:40;21.20;;;16.52;;
21513;SDS011;10918;48.102;11.636;2023-05-14T05:56:06;22.20;;;16.55;;
21513;SDS011;10918;48.102;11.636;2023-05-14T05:58:32;25.00;;;16.60;;
21513;SDS011;10918;48.102;11.636;2023-05-14T06:00:58;27.38;;;17.45;;
21513;SDS011;10918;48.102;11.636;2023-05-14T06:03:25;25.92;;;16.42;;
21513;SDS011;10918;48.102;11.636;2023-05-14T06:05:51;24.17;;;17.55;;
21513;SDS011;10918;48.102;11.636;2023-05-14T06:08:17;20.85;;;16.08;;
21513;SDS011;10918;48.102;11.636;2023-05-14T06:10:43;24.25;;;15.93;;
21513;SDS011;10918;48.102;11.636;2023-05-14T06:13:10;24.38;;;17.67;;
21513;SDS011;10918;48.102;11.636;2023-05-14T06:15:36;25.23;;;17.77;;
21513;SDS011;10918;48.102;11.636;2023-05-14T06:18:02;23.77;;;16.80;;
21513;SDS011;10918;48.102;11.636;2023-05-14T06:20:28;23.60;;;16.60;;
21513;SDS011;10918;48.102;11.636;2023-05-14T06:22:54;24.73;;;17.95;;
21513;SDS011;10918;48.102;11.636;2023-05-14T06:25:20;19.80;;;14.95;;
21513;SDS011;10918;48.102;11.636;2023-05-14T06:27:46;23.88;;;16.73;;
21513;SDS011;10918;48.102;11.636;2023-05-14T06:30:12;22.63;;;16.10;;
21513;SDS011;10918;48.102;11.636;2023-05-14T06:32:39;23.77;;;16.23;;
21513;SDS011;10918;48.102;11.636;2023-05-14T06:35:05;25.48;;;17.15;;
21513;SDS011;10918;48.102;11.636;2023-05-14T06:37:31;24.45;;;17.08;;
21513;SDS011;10918;48.102;11.636;2023-05-14T06:39:57;22.15;;;16.23;;
21513;SDS011;10918;48.102;11.636;2023-05-14T06:42:23;23.80;;;15.80;;
21513;SDS011;10918;48.102;11.636;2023-05-14T06:44:50;21.58;;;15.55;;
21513;SDS011;10918;48.102;11.636;2023-05-14T06:47:16;25.38;;;17.52;;
21513;SDS011;10918;48.102;11.636;2023-05-14T06:49:42;22.10;;;16.95;;
21513;SDS011;10918;48.102;11.636;2023-05-14T06:52:08;22.92;;;16.67;;
21513;SDS011;10918;48.102;11.636;2023-05-14T06:54:34;23.67;;;17.30;;
21513;SDS011;10918;48.102;11.636;2023-05-14T06:57:00;19.38;;;15.05;;
21513;SDS011;10918;48.102;11.636;2023-05-14T06:59:26;21.05;;;15.93;;
21513;SDS011;10918;48.102;11.636;2023-05-14T07:01:52;23.00;;;16.27;;
21513;SDS011;10918;48.102;11.636;2023-05-14T07:04:18;22.35;;;15.70;;
21513;SDS011;10918;48.102;11.636;2023-05-14T07:06:44;20.40;;;15.65;;
21513;SDS011;10918;48.102;11.636;2023-05-14T07:09:10;21.70;;;16.42;;
21513;SDS011;10918;48.102;11.636;2023-05-14T07:11:36;19.95;;;15.15;;
21513;SDS011;10918;48.102;11.636;2023-05-14T07:14:02;21.17;;;16.02;;
21513;SDS011;10918;48.102;11.636;2023-05-14T07:16:28;19.65;;;15.10;;
21513;SDS011;10918;48.102;11.636;2023-05-14T07:18:54;19.15;;;15.02;;
21513;SDS011;10918;48.102;11.636;2023-05-14T07:21:20;21.10;;;14.80;;
21513;SDS011;10918;48.102;11.636;2023-05-14T07:23:46;19.83;;;14.65;;
21513;SDS011;10918;48.102;11.636;2023-05-14T07:26:12;22.67;;;15.70;;
21513;SDS011;10918;48.102;11.636;2023-05-14T07:28:38;19.90;;;14.95;;
21513;SDS011;10918;48.102;11.636;2023-05-14T07:31:04;19.40;;;15.35;;
21513;SDS011;10918;48.102;11.636;2023-05-14T07:33:32;20.13;;;14.85;;
21513;SDS011;10918;48.102;11.636;2023-05-14T07:35:58;21.23;;;15.23;;
21513;SDS011;10918;48.102;11.636;2023-05-14T07:38:24;20.60;;;14.55;;
21513;SDS011;10918;48.102;11.636;2023-05-14T07:40:50;19.85;;;14.98;;
21513;SDS011;10918;48.102;11.636;2023-05-14T07:43:16;18.88;;;14.57;;
21513;SDS011;10918;48.102;11.636;2023-05-14T07:45:42;19.00;;;14.23;;
21513;SDS011;10918;48.102;11.636;2023-05-14T07:48:08;19.80;;;14.48;;
21513;SDS011;10918;48.102;11.636;2023-05-14T07:50:35;18.25;;;13.45;;
21513;SDS011;10918;48.102;11.636;2023-05-14T07:53:01;14.95;;;12.63;;
21513;SDS011;10918;48.102;11.636;2023-05-14T07:55:27;17.55;;;13.70;;
21513;SDS011;10918;48.102;11.636;2023-05-14T07:57:53;18.55;;;13.23;;
21513;SDS011;10918;48.102;11.636;2023-05-14T08:00:19;15.35;;;12.80;;
21513;SDS011;10918;48.102;11.636;2023-05-14T08:02:45;19.50;;;13.30;;
21513;SDS011;10918;48.102;11.636;2023-05-14T08:05:12;16.17;;;13.05;;
21513;SDS011;10918;48.102;11.636;2023-05-14T08:07:38;16.13;;;12.52;;
21513;SDS011;10918;48.102;11.636;2023-05-14T08:10:06;14.82;;;11.80;;
21513;SDS011;10918;48.102;11.636;2023-05-14T08:12:32;15.05;;;12.38;;
21513;SDS011;10918;48.102;11.636;2023-05-14T08:14:58;14.98;;;12.23;;
21513;SDS011;10918;48.102;11.636;2023-05-14T08:17:24;17.85;;;13.50;;
21513;SDS011;10918;48.102;11.636;2023-05-14T08:19:51;15.57;;;11.98;;
21513;SDS011;10918;48.102;11.636;2023-05-14T08:22:17;15.38;;;11.80;;
21513;SDS011;10918;48.102;11.636;2023-05-14T08:24:43;17.02;;;12.63;;
21513;SDS011;10918;48.102;11.636;2023-05-14T08:27:09;16.50;;;11.65;;
21513;SDS011;10918;48.102;11.636;2023-05-14T08:29:35;16.50;;;12.02;;
21513;SDS011;10918;48.102;11.636;2023-05-14T08:32:01;15.30;;;11.38;;
21513;SDS011;10918;48.102;11.636;2023-05-14T08:34:27;13.95;;;11.15;;
21513;SDS011;10918;48.102;11.636;2023-05-14T08:36:53;15.38;;;11.75;;
21513;SDS011;10918;48.102;11.636;2023-05-14T08:39:19;13.23;;;10.88;;
21513;SDS011;10918;48.102;11.636;2023-05-14T08:41:45;12.57;;;10.57;;
21513;SDS011;10918;48.102;11.636;2023-05-14T08:44:12;12.77;;;10.55;;
21513;SDS011;10918;48.102;11.636;2023-05-14T08:46:41;13.07;;;11.27;;
21513;SDS011;10918;48.102;11.636;2023-05-14T08:49:14;12.93;;;10.57;;
21513;SDS011;10918;48.102;11.636;2023-05-14T08:51:44;15.23;;;10.70;;
21513;SDS011;10918;48.102;11.636;2023-05-14T08:54:17;13.02;;;10.77;;
21513;SDS011;10918;48.102;11.636;2023-05-14T08:56:43;13.98;;;11.00;;
21513;SDS011;10918;48.102;11.636;2023-05-14T08:59:12;11.70;;;10.05;;
21513;SDS011;10918;48.102;11.636;2023-05-14T09:01:41;13.85;;;11.20;;
21513;SDS011;10918;48.102;11.636;2023-05-14T09:04:08;15.35;;;11.02;;
21513;SDS011;10918;48.102;11.636;2023-05-14T09:06:35;17.10;;;11.20;;
21513;SDS011;10918;48.102;11.636;2023-05-14T09:09:04;15.95;;;12.05;;
21513;SDS011;10918;48.102;11.636;2023-05-14T09:11:30;14.70;;;10.60;;
21513;SDS011;10918;48.102;11.636;2023-05-14T09:13:56;15.48;;;11.38;;
21513;SDS011;10918;48.102;11.636;2023-05-14T09:16:23;14.43;;;11.10;;
21513;SDS011;10918;48.102;11.636;2023-05-14T09:18:50;13.45;;;10.20;;
21513;SDS011;10918;48.102;11.636;2023-05-14T09:21:17;12.70;;;9.23;;
21513;SDS011;10918;48.102;11.636;2023-05-14T09:23:43;13.13;;;10.25;;
21513;SDS011;10918;48.102;11.636;2023-05-14T09:26:09;12.90;;;10.45;;
21513;SDS011;10918;48.102;11.636;2023-05-14T09:28:38;12.50;;;10.60;;
21513;SDS011;10918;48.102;11.636;2023-05-14T09:31:05;13.82;;;11.10;;
21513;SDS011;10918;48.102;11.636;2023-05-14T09:33:31;13.13;;;9.95;;
21513;SDS011;10918;48.102;11.636;2023-05-14T09:35:58;13.32;;;9.73;;
21513;SDS011;10918;48.102;11.636;2023-05-14T09:38:29;13.00;;;9.32;;
21513;SDS011;10918;48.102;11.636;2023-05-14T09:40:56;11.68;;;9.35;;
21513;SDS011;10918;48.102;11.636;2023-05-14T09:43:22;12.00;;;9.13;;
21513;SDS011;10918;48.102;11.636;2023-05-14T09:45:48;12.00;;;10.20;;
21513;SDS011;10918;48.102;11.636;2023-05-14T09:48:14;11.27;;;8.85;;
21513;SDS011;10918;48.102;11.636;2023-05-14T09:50:44;14.82;;;11.70;;
21513;SDS011;10918;48.102;11.636;2023-05-14T09:53:13;11.38;;;9.98;;
21513;SDS011;10918;48.102;11.636;2023-05-14T09:55:39;13.50;;;9.90;;
21513;SDS011;10918;48.102;11.636;2023-05-14T09:58:05;11.07;;;8.95;;
21513;SDS011;10918;48.102;11.636;2023-05-14T10:00:32;10.75;;;8.57;;
21513;SDS011;10918;48.102;11.636;2023-05-14T10:02:58;11.57;;;8.82;;
21513;SDS011;10918;48.102;11.636;2023-05-14T10:05:29;12.35;;;10.43;;
21513;SDS011;10918;48.102;11.636;2023-05-14T10:07:56;10.05;;;8.40;;
21513;SDS011;10918;48.102;11.636;2023-05-14T10:10:25;12.20;;;9.55;;
21513;SDS011;10918;48.102;11.636;2023-05-14T10:12:57;9.70;;;8.13;;
21513;SDS011;10918;48.102;11.636;2023-05-14T10:15:29;9.35;;;7.70;;
21513;SDS011;10918;48.102;11.636;2023-05-14T10:17:59;9.18;;;8.25;;
21513;SDS011;10918;48.102;11.636;2023-05-14T10:20:28;9.15;;;7.75;;
21513;SDS011;10918;48.102;11.636;2023-05-14T10:22:54;8.38;;;7.10;;
21513;SDS011;10918;48.102;11.636;2023-05-14T10:25:20;8.55;;;7.45;;
21513;SDS011;10918;48.102;11.636;2023-05-14T10:27:47;9.07;;;7.47;;
21513;SDS011;10918;48.102;11.636;2023-05-14T10:30:13;9.82;;;7.57;;
21513;SDS011;10918;48.102;11.636;2023-05-14T10:32:39;9.18;;;7.18;;
21513;SDS011;10918;48.102;11.636;2023-05-14T10:35:15;7.70;;;6.90;;
21513;SDS011;10918;48.102;11.636;2023-05-14T10:37:42;10.43;;;8.15;;
21513;SDS011;10918;48.102;11.636;2023-05-14T10:40:10;9.25;;;7.18;;
21513;SDS011;10918;48.102;11.636;2023-05-14T10:42:37;8.20;;;7.38;;
21513;SDS011;10918;48.102;11.636;2023-05-14T10:45:08;9.48;;;7.32;;
21513;SDS011;10918;48.102;11.636;2023-05-14T10:47:35;9.38;;;7.35;;
21513;SDS011;10918;48.102;11.636;2023-05-14T10:50:02;7.57;;;6.75;;
21513;SDS011;10918;48.102;11.636;2023-05-14T10:52:28;8.65;;;7.28;;
21513;SDS011;10918;48.102;11.636;2023-05-14T10:54:56;8.85;;;7.38;;
21513;SDS011;10918;48.102;11.636;2023-05-14T10:57:23;9.40;;;6.80;;
21513;SDS011;10918;48.102;11.636;2023-05-14T10:59:53;8.27;;;7.32;;
21513;SDS011;10918;48.102;11.636;2023-05-14T11:02:33;7.25;;;6.00;;
21513;SDS011;10918;48.102;11.636;2023-05-14T11:05:10;8.85;;;6.93;;
21513;SDS011;10918;48.102;11.636;2023-05-14T11:07:41;7.20;;;6.50;;
21513;SDS011;10918;48.102;11.636;2023-05-14T11:10:08;7.68;;;6.75;;
21513;SDS011;10918;48.102;11.636;2023-05-14T11:12:35;7.32;;;6.10;;
21513;SDS011;10918;48.102;11.636;2023-05-14T11:15:06;8.30;;;6.63;;
21513;SDS011;10918;48.102;11.636;2023-05-14T11:17:33;7.82;;;6.15;;
21513;SDS011;10918;48.102;11.636;2023-05-14T11:19:59;7.35;;;6.45;;
21513;SDS011;10918;48.102;11.636;2023-05-14T11:22:25;8.73;;;6.57;;
21513;SDS011;10918;48.102;11.636;2023-05-14T11:24:52;6.30;;;5.68;;
21513;SDS011;10918;48.102;11.636;2023-05-14T11:27:18;8.82;;;5.57;;
21513;SDS011;10918;48.102;11.636;2023-05-14T11:29:45;6.05;;;5.32;;
21513;SDS011;10918;48.102;11.636;2023-05-14T11:32:11;6.20;;;5.30;;
21513;SDS011;10918;48.102;11.636;2023-05-14T11:34:38;6.18;;;5.57;;
21513;SDS011;10918;48.102;11.636;2023-05-14T11:37:05;6.30;;;5.70;;
21513;SDS011;10918;48.102;11.636;2023-05-14T11:39:32;6.05;;;5.30;;
21513;SDS011;10918;48.102;11.636;2023-05-14T11:42:01;6.05;;;5.35;;
21513;SDS011;10918;48.102;11.636;2023-05-14T11:44:27;5.47;;;4.65;;
21513;SDS011;10918;48.102;11.636;2023-05-14T11:46:54;6.30;;;5.05;;
21513;SDS011;10918;48.102;11.636;2023-05-14T11:49:21;4.82;;;4.28;;
21513;SDS011;10918;48.102;11.636;2023-05-14T11:51:47;4.97;;;4.47;;
21513;SDS011;10918;48.102;11.636;2023-05-14T11:54:13;5.22;;;4.57;;
21513;SDS011;10918;48.102;11.636;2023-05-14T11:56:40;4.63;;;4.15;;
21513;SDS011;10918;48.102;11.636;2023-05-14T11:59:06;4.95;;;4.38;;
21513;SDS011;10918;48.102;11.636;2023-05-14T12:01:36;4.50;;;4.07;;
21513;SDS011;10918;48.102;11.636;2023-05-14T12:04:03;4.38;;;3.83;;
21513;SDS011;10918;48.102;11.636;2023-05-14T12:06:29;4.70;;;4.18;;
21513;SDS011;10918;48.102;11.636;2023-05-14T12:08:56;4.47;;;4.07;;
21513;SDS011;10918;48.102;11.636;2023-05-14T12:11:22;4.72;;;4.10;;
21513;SDS011;10918;48.102;11.636;2023-05-14T12:13:48;4.60;;;4.00;;
21513;SDS011;10918;48.102;11.636;2023-05-14T12:16:14;5.65;;;4.38;;
21513;SDS011;10918;48.102;11.636;2023-05-14T12:18:41;4.50;;;4.10;;
21513;SDS011;10918;48.102;11.636;2023-05-14T12:21:07;5.65;;;4.28;;
21513;SDS011;10918;48.102;11.636;2023-05-14T12:23:33;4.32;;;3.92;;
21513;SDS011;10918;48.102;11.636;2023-05-14T12:26:06;4.57;;;4.18;;
21513;SDS011;10918;48.102;11.636;2023-05-14T12:28:32;3.70;;;3.40;;
21513;SDS011;10918;48.102;11.636;2023-05-14T12:30:58;3.53;;;3.22;;
21513;SDS011;10918;48.102;11.636;2023-05-14T12:33:27;3.88;;;3.50;;
21513;SDS011;10918;48.102;11.636;2023-05-14T12:35:53;3.65;;;3.08;;
21513;SDS011;10918;48.102;11.636;2023-05-14T12:38:25;6.88;;;3.90;;
21513;SDS011;10918;48.102;11.636;2023-05-14T12:40:51;4.30;;;3.10;;
21513;SDS011;10918;48.102;11.636;2023-05-14T12:43:17;4.50;;;4.10;;
21513;SDS011;10918;48.102;11.636;2023-05-14T12:45:43;4.88;;;4.32;;
21513;SDS011;10918;48.102;11.636;2023-05-14T12:48:09;4.28;;;3.55;;
21513;SDS011;10918;48.102;11.636;2023-05-14T12:50:37;4.50;;;4.10;;
21513;SDS011;10918;48.102;11.636;2023-05-14T12:53:03;5.03;;;4.53;;
21513;SDS011;10918;48.102;11.636;2023-05-14T12:55:29;6.32;;;5.05;;
21513;SDS011;10918;48.102;11.636;2023-05-14T12:57:55;4.38;;;3.97;;
21513;SDS011;10918;48.102;11.636;2023-05-14T13:00:21;7.00;;;4.57;;
21513;SDS011;10918;48.102;11.636;2023-05-14T13:02:47;4.40;;;4.00;;
21513;SDS011;10918;48.102;11.636;2023-05-14T13:05:13;4.22;;;3.60;;
21513;SDS011;10918;48.102;11.636;2023-05-14T13:07:39;4.40;;;3.83;;
21513;SDS011;10918;48.102;11.636;2023-05-14T13:10:06;4.45;;;4.05;;
21513;SDS011;10918;48.102;11.636;2023-05-14T13:12:32;5.70;;;4.00;;
21513;SDS011;10918;48.102;11.636;2023-05-14T13:14:58;4.35;;;3.83;;
21513;SDS011;10918;48.102;11.636;2023-05-14T13:17:24;4.20;;;3.90;;
21513;SDS011;10918;48.102;11.636;2023-05-14T13:19:50;4.30;;;3.90;;
21513;SDS011;10918;48.102;11.636;2023-05-14T13:22:16;4.40;;;4.00;;
21513;SDS011;10918;48.102;11.636;2023-05-14T13:24:42;4.85;;;4.30;;
21513;SDS011;10918;48.102;11.636;2023-05-14T13:27:09;4.03;;;3.65;;
21513;SDS011;10918;48.102;11.636;2023-05-14T13:29:35;3.85;;;3.55;;
21513;SDS011;10918;48.102;11.636;2023-05-14T13:32:01;4.50;;;3.83;;
21513;SDS011;10918;48.102;11.636;2023-05-14T13:34:27;3.28;;;2.97;;
21513;SDS011;10918;48.102;11.636;2023-05-14T13:36:53;4.88;;;3.80;;
21513;SDS011;10918;48.102;11.636;2023-05-14T13:39:19;4.47;;;3.55;;
21513;SDS011;10918;48.102;11.636;2023-05-14T13:41:46;3.40;;;3.10;;
21513;SDS011;10918;48.102;11.636;2023-05-14T13:44:14;6.78;;;5.47;;
21513;SDS011;10918;48.102;11.636;2023-05-14T13:46:41;4.32;;;3.92;;
21513;SDS011;10918;48.102;11.636;2023-05-14T13:49:07;5.18;;;3.85;;
21513;SDS011;10918;48.102;11.636;2023-05-14T13:51:33;4.07;;;3.17;;
21513;SDS011;10918;48.102;11.636;2023-05-14T13:53:59;3.55;;;3.20;;
21513;SDS011;10918;48.102;11.636;2023-05-14T13:56:25;3.85;;;2.83;;
21513;SDS011;10918;48.102;11.636;2023-05-14T13:58:51;3.00;;;2.70;;
21513;SDS011;10918;48.102;11.636;2023-05-14T14:01:17;2.70;;;2.50;;
21513;SDS011;10918;48.102;11.636;2023-05-14T14:03:43;3.08;;;2.38;;
21513;SDS011;10918;48.102;11.636;2023-05-14T14:06:09;2.63;;;2.40;;
21513;SDS011;10918;48.102;11.636;2023-05-14T14:08:35;3.15;;;2.38;;
21513;SDS011;10918;48.102;11.636;2023-05-14T14:11:01;2.30;;;2.10;;
21513;SDS011;10918;48.102;11.636;2023-05-14T14:13:27;2.30;;;2.10;;